sensor_id;sensor_type;location;lat;lon;timestamp;P1;durP1;ratioP1;P2;durP2;ratioP2
77206;SDS011;66190;50.708;7.906;2023-02-10T00:01:21;31.25;;;13.95;;
77206;SDS011;66190;50.708;7.906;2023-02-10T00:03:48;31.83;;;13.20;;
77206;SDS011;66190;50.708;7.906;2023-02-10T00:06:14;32.25;;;13.65;;
77206;SDS011;66190;50.708;7.906;2023-02-10T00:08:40;31.23;;;13.20;;
77206;SDS011;66190;50.708;7.906;2023-02-10T00:11:08;27.50;;;12.60;;
77206;SDS011;66190;50.708;7.906;2023-02-10T00:13:35;32.53;;;12.77;;
77206;SDS011;66190;50.708;7.906;2023-02-10T00:16:02;34.08;;;13.27;;
77206;SDS011;66190;50.708;7.906;2023-02-10T00:18:29;32.40;;;13.70;;
77206;SDS011;66190;50.708;7.906;2023-02-10T00:20:55;33.53;;;14.35;;
77206;SDS011;66190;50.708;7.906;2023-02-10T00:23:21;35.97;;;14.77;;
77206;SDS011;66190;50.708;7.906;2023-02-10T00:25:47;32.90;;;15.25;;
77206;SDS011;66190;50.708;7.906;2023-02-10T00:28:13;30.73;;;14.47;;
77206;SDS011;66190;50.708;7.906;2023-02-10T00:30:38;36.17;;;14.88;;
77206;SDS011;66190;50.708;7.906;2023-02-10T00:33:04;33.50;;;15.05;;
77206;SDS011;66190;50.708;7.906;2023-02-10T00:35:30;32.53;;;14.37;;
77206;SDS011;66190;50.708;7.906;2023-02-10T00:37:55;35.55;;;14.90;;
77206;SDS011;66190;50.708;7.906;2023-02-10T00:40:21;35.80;;;14.67;;
77206;SDS011;66190;50.708;7.906;2023-02-10T00:42:47;39.75;;;17.15;;
77206;SDS011;66190;50.708;7.906;2023-02-10T00:45:12;41.03;;;17.33;;
77206;SDS011;66190;50.708;7.906;2023-02-10T00:47:38;43.40;;;18.42;;
77206;SDS011;66190;50.708;7.906;2023-02-10T00:50:04;45.45;;;18.50;;
77206;SDS011;66190;50.708;7.906;2023-02-10T00:52:30;45.87;;;19.00;;
77206;SDS011;66190;50.708;7.906;2023-02-10T00:54:56;52.72;;;21.40;;
77206;SDS011;66190;50.708;7.906;2023-02-10T00:57:22;53.88;;;21.67;;
77206;SDS011;66190;50.708;7.906;2023-02-10T00:59:47;49.30;;;18.15;;
77206;SDS011;66190;50.708;7.906;2023-02-10T01:02:13;50.27;;;20.67;;
77206;SDS011;66190;50.708;7.906;2023-02-10T01:04:39;52.65;;;21.15;;
77206;SDS011;66190;50.708;7.906;2023-02-10T01:07:04;60.60;;;21.80;;
77206;SDS011;66190;50.708;7.906;2023-02-10T01:09:30;60.35;;;22.65;;
77206;SDS011;66190;50.708;7.906;2023-02-10T01:11:56;63.27;;;23.37;;
77206;SDS011;66190;50.708;7.906;2023-02-10T01:14:21;66.30;;;24.60;;
77206;SDS011;66190;50.708;7.906;2023-02-10T01:16:48;67.95;;;24.15;;
77206;SDS011;66190;50.708;7.906;2023-02-10T01:19:14;71.90;;;25.90;;
77206;SDS011;66190;50.708;7.906;2023-02-10T01:21:40;74.63;;;27.23;;
77206;SDS011;66190;50.708;7.906;2023-02-10T01:24:05;78.03;;;26.42;;
77206;SDS011;66190;50.708;7.906;2023-02-10T01:26:32;76.17;;;27.23;;
77206;SDS011;66190;50.708;7.906;2023-02-10T01:28:58;76.57;;;29.17;;
77206;SDS011;66190;50.708;7.906;2023-02-10T01:31:24;82.65;;;27.90;;
77206;SDS011;66190;50.708;7.906;2023-02-10T01:33:51;71.90;;;27.13;;
77206;SDS011;66190;50.708;7.906;2023-02-10T01:36:19;73.93;;;27.65;;
77206;SDS011;66190;50.708;7.906;2023-02-10T01:38:46;79.00;;;27.13;;
77206;SDS011;66190;50.708;7.906;2023-02-10T01:41:13;82.75;;;29.27;;
77206;SDS011;66190;50.708;7.906;2023-02-10T01:43:54;84.70;;;29.38;;
77206;SDS011;66190;50.708;7.906;2023-02-10T01:46:30;83.65;;;28.58;;
77206;SDS011;66190;50.708;7.906;2023-02-10T01:48:59;84.93;;;29.57;;
77206;SDS011;66190;50.708;7.906;2023-02-10T01:51:37;71.78;;;28.13;;
77206;SDS011;66190;50.708;7.906;2023-02-10T01:54:08;73.72;;;27.75;;
77206;SDS011;66190;50.708;7.906;2023-02-10T01:56:39;70.53;;;26.55;;
77206;SDS011;66190;50.708;7.906;2023-02-10T01:59:06;60.20;;;25.02;;
77206;SDS011;66190;50.708;7.906;2023-02-10T02:01:32;64.40;;;25.47;;
77206;SDS011;66190;50.708;7.906;2023-02-10T02:03:57;62.65;;;24.27;;
77206;SDS011;66190;50.708;7.906;2023-02-10T02:06:25;58.78;;;23.17;;
77206;SDS011;66190;50.708;7.906;2023-02-10T02:08:50;67.83;;;25.10;;
77206;SDS011;66190;50.708;7.906;2023-02-10T02:11:29;65.35;;;25.95;;
77206;SDS011;66190;50.708;7.906;2023-02-10T02:14:29;70.95;;;27.73;;
77206;SDS011;66190;50.708;7.906;2023-02-10T02:19:52;69.07;;;27.52;;
77206;SDS011;66190;50.708;7.906;2023-02-10T02:34:17;71.05;;;26.65;;
77206;SDS011;66190;50.708;7.906;2023-02-10T02:36:30;71.47;;;26.87;;
77206;SDS011;66190;50.708;7.906;2023-02-10T02:39:03;68.28;;;27.27;;
77206;SDS011;66190;50.708;7.906;2023-02-10T02:41:30;73.22;;;28.13;;
77206;SDS011;66190;50.708;7.906;2023-02-10T02:43:57;68.95;;;25.50;;
77206;SDS011;66190;50.708;7.906;2023-02-10T02:52:02;55.47;;;23.67;;
77206;SDS011;66190;50.708;7.906;2023-02-10T03:00:08;53.15;;;23.35;;
77206;SDS011;66190;50.708;7.906;2023-02-10T03:02:36;51.60;;;22.67;;
77206;SDS011;66190;50.708;7.906;2023-02-10T03:05:06;60.60;;;25.13;;
77206;SDS011;66190;50.708;7.906;2023-02-10T03:07:33;56.72;;;24.13;;
77206;SDS011;66190;50.708;7.906;2023-02-10T03:09:59;66.20;;;25.30;;
77206;SDS011;66190;50.708;7.906;2023-02-10T03:12:25;61.27;;;24.13;;
77206;SDS011;66190;50.708;7.906;2023-02-10T03:14:51;66.20;;;25.08;;
77206;SDS011;66190;50.708;7.906;2023-02-10T03:17:16;58.83;;;23.73;;
77206;SDS011;66190;50.708;7.906;2023-02-10T03:19:42;65.87;;;25.50;;
77206;SDS011;66190;50.708;7.906;2023-02-10T03:22:08;61.72;;;24.83;;
77206;SDS011;66190;50.708;7.906;2023-02-10T03:24:33;63.83;;;24.40;;
77206;SDS011;66190;50.708;7.906;2023-02-10T03:26:59;62.75;;;25.95;;
77206;SDS011;66190;50.708;7.906;2023-02-10T03:29:25;68.20;;;27.67;;
77206;SDS011;66190;50.708;7.906;2023-02-10T03:31:50;74.03;;;28.05;;
77206;SDS011;66190;50.708;7.906;2023-02-10T03:34:16;69.37;;;25.67;;
77206;SDS011;66190;50.708;7.906;2023-02-10T03:36:42;59.87;;;25.30;;
77206;SDS011;66190;50.708;7.906;2023-02-10T03:39:07;63.80;;;25.45;;
77206;SDS011;66190;50.708;7.906;2023-02-10T03:41:33;61.73;;;24.23;;
77206;SDS011;66190;50.708;7.906;2023-02-10T03:43:59;59.22;;;24.73;;
77206;SDS011;66190;50.708;7.906;2023-02-10T03:46:24;61.13;;;23.67;;
77206;SDS011;66190;50.708;7.906;2023-02-10T03:48:50;64.88;;;25.38;;
77206;SDS011;66190;50.708;7.906;2023-02-10T03:51:15;68.13;;;24.40;;
77206;SDS011;66190;50.708;7.906;2023-02-10T03:53:41;69.38;;;27.65;;
77206;SDS011;66190;50.708;7.906;2023-02-10T03:56:07;62.67;;;25.85;;
77206;SDS011;66190;50.708;7.906;2023-02-10T03:58:33;69.47;;;26.10;;
77206;SDS011;66190;50.708;7.906;2023-02-10T04:00:58;61.78;;;24.60;;
77206;SDS011;66190;50.708;7.906;2023-02-10T04:03:24;69.60;;;27.47;;
77206;SDS011;66190;50.708;7.906;2023-02-10T04:05:50;61.45;;;25.20;;
77206;SDS011;66190;50.708;7.906;2023-02-10T04:08:16;63.00;;;25.37;;
77206;SDS011;66190;50.708;7.906;2023-02-10T04:10:42;64.57;;;24.38;;
77206;SDS011;66190;50.708;7.906;2023-02-10T04:13:07;69.57;;;24.20;;
77206;SDS011;66190;50.708;7.906;2023-02-10T04:15:33;61.03;;;24.48;;
77206;SDS011;66190;50.708;7.906;2023-02-10T04:17:59;63.90;;;25.60;;
77206;SDS011;66190;50.708;7.906;2023-02-10T04:20:24;58.97;;;24.50;;
77206;SDS011;66190;50.708;7.906;2023-02-10T04:22:51;59.70;;;26.50;;
77206;SDS011;66190;50.708;7.906;2023-02-10T04:25:17;61.35;;;24.27;;
77206;SDS011;66190;50.708;7.906;2023-02-10T04:27:42;56.33;;;24.07;;
77206;SDS011;66190;50.708;7.906;2023-02-10T04:30:08;59.05;;;24.63;;
77206;SDS011;66190;50.708;7.906;2023-02-10T04:32:34;63.50;;;24.38;;
77206;SDS011;66190;50.708;7.906;2023-02-10T04:35:00;61.87;;;24.50;;
77206;SDS011;66190;50.708;7.906;2023-02-10T04:37:26;63.15;;;26.58;;
77206;SDS011;66190;50.708;7.906;2023-02-10T04:39:51;56.20;;;23.33;;
77206;SDS011;66190;50.708;7.906;2023-02-10T04:42:17;59.83;;;25.38;;
77206;SDS011;66190;50.708;7.906;2023-02-10T04:44:43;62.30;;;25.00;;
77206;SDS011;66190;50.708;7.906;2023-02-10T04:47:08;60.73;;;24.47;;
77206;SDS011;66190;50.708;7.906;2023-02-10T04:49:35;59.72;;;24.67;;
77206;SDS011;66190;50.708;7.906;2023-02-10T04:52:01;56.63;;;23.73;;
77206;SDS011;66190;50.708;7.906;2023-02-10T04:54:27;59.30;;;24.90;;
77206;SDS011;66190;50.708;7.906;2023-02-10T04:56:52;55.75;;;24.00;;
77206;SDS011;66190;50.708;7.906;2023-02-10T04:59:18;65.43;;;24.97;;
77206;SDS011;66190;50.708;7.906;2023-02-10T05:01:44;64.43;;;27.00;;
77206;SDS011;66190;50.708;7.906;2023-02-10T05:04:09;70.10;;;28.27;;
77206;SDS011;66190;50.708;7.906;2023-02-10T05:06:35;60.43;;;24.83;;
77206;SDS011;66190;50.708;7.906;2023-02-10T05:09:02;68.60;;;27.63;;
77206;SDS011;66190;50.708;7.906;2023-02-10T05:11:27;62.28;;;24.05;;
77206;SDS011;66190;50.708;7.906;2023-02-10T05:13:53;60.27;;;23.97;;
77206;SDS011;66190;50.708;7.906;2023-02-10T05:16:19;56.55;;;23.27;;
77206;SDS011;66190;50.708;7.906;2023-02-10T05:18:44;58.80;;;23.77;;
77206;SDS011;66190;50.708;7.906;2023-02-10T05:21:11;63.00;;;24.00;;
77206;SDS011;66190;50.708;7.906;2023-02-10T05:23:38;55.10;;;23.88;;
77206;SDS011;66190;50.708;7.906;2023-02-10T05:26:04;57.70;;;23.13;;
77206;SDS011;66190;50.708;7.906;2023-02-10T05:28:30;56.58;;;21.50;;
77206;SDS011;66190;50.708;7.906;2023-02-10T05:30:56;58.60;;;21.70;;
77206;SDS011;66190;50.708;7.906;2023-02-10T05:33:22;57.10;;;23.67;;
77206;SDS011;66190;50.708;7.906;2023-02-10T05:35:47;59.30;;;22.80;;
77206;SDS011;66190;50.708;7.906;2023-02-10T05:38:13;62.60;;;24.20;;
77206;SDS011;66190;50.708;7.906;2023-02-10T05:40:39;58.47;;;24.58;;
77206;SDS011;66190;50.708;7.906;2023-02-10T05:43:04;62.77;;;23.87;;
77206;SDS011;66190;50.708;7.906;2023-02-10T05:45:30;61.90;;;24.02;;
77206;SDS011;66190;50.708;7.906;2023-02-10T05:47:56;64.67;;;25.90;;
77206;SDS011;66190;50.708;7.906;2023-02-10T05:50:21;63.90;;;25.33;;
77206;SDS011;66190;50.708;7.906;2023-02-10T05:52:47;64.90;;;25.35;;
77206;SDS011;66190;50.708;7.906;2023-02-10T05:55:13;72.73;;;25.33;;
77206;SDS011;66190;50.708;7.906;2023-02-10T05:57:38;65.88;;;24.70;;
77206;SDS011;66190;50.708;7.906;2023-02-10T06:00:05;65.47;;;25.30;;
77206;SDS011;66190;50.708;7.906;2023-02-10T06:02:32;69.30;;;25.90;;
77206;SDS011;66190;50.708;7.906;2023-02-10T06:04:58;72.20;;;26.48;;
77206;SDS011;66190;50.708;7.906;2023-02-10T06:07:23;77.13;;;28.43;;
77206;SDS011;66190;50.708;7.906;2023-02-10T06:09:49;75.20;;;27.60;;
77206;SDS011;66190;50.708;7.906;2023-02-10T06:12:15;79.32;;;26.83;;
77206;SDS011;66190;50.708;7.906;2023-02-10T06:14:40;76.37;;;25.70;;
77206;SDS011;66190;50.708;7.906;2023-02-10T06:17:06;87.88;;;29.88;;
77206;SDS011;66190;50.708;7.906;2023-02-10T06:19:36;87.77;;;28.27;;
77206;SDS011;66190;50.708;7.906;2023-02-10T06:22:02;81.97;;;27.55;;
77206;SDS011;66190;50.708;7.906;2023-02-10T06:24:29;75.05;;;25.80;;
77206;SDS011;66190;50.708;7.906;2023-02-10T06:26:54;82.40;;;26.63;;
77206;SDS011;66190;50.708;7.906;2023-02-10T06:29:20;81.55;;;26.92;;
77206;SDS011;66190;50.708;7.906;2023-02-10T06:31:46;89.43;;;27.83;;
77206;SDS011;66190;50.708;7.906;2023-02-10T06:34:11;86.65;;;27.30;;
77206;SDS011;66190;50.708;7.906;2023-02-10T06:36:37;83.67;;;25.90;;
77206;SDS011;66190;50.708;7.906;2023-02-10T06:39:03;80.00;;;26.63;;
77206;SDS011;66190;50.708;7.906;2023-02-10T06:41:29;77.75;;;27.58;;
77206;SDS011;66190;50.708;7.906;2023-02-10T06:43:54;77.88;;;26.85;;
77206;SDS011;66190;50.708;7.906;2023-02-10T06:46:20;87.78;;;29.98;;
77206;SDS011;66190;50.708;7.906;2023-02-10T06:48:46;86.82;;;28.15;;
77206;SDS011;66190;50.708;7.906;2023-02-10T06:51:12;79.43;;;29.83;;
77206;SDS011;66190;50.708;7.906;2023-02-10T06:53:37;69.30;;;27.17;;
77206;SDS011;66190;50.708;7.906;2023-02-10T06:56:03;75.50;;;26.77;;
77206;SDS011;66190;50.708;7.906;2023-02-10T06:58:29;64.32;;;25.13;;
77206;SDS011;66190;50.708;7.906;2023-02-10T07:00:54;82.47;;;28.33;;
77206;SDS011;66190;50.708;7.906;2023-02-10T07:03:20;64.22;;;25.50;;
77206;SDS011;66190;50.708;7.906;2023-02-10T07:05:46;72.17;;;26.77;;
77206;SDS011;66190;50.708;7.906;2023-02-10T07:08:11;75.93;;;28.83;;
77206;SDS011;66190;50.708;7.906;2023-02-10T07:10:38;75.72;;;27.75;;
77206;SDS011;66190;50.708;7.906;2023-02-10T07:13:05;68.70;;;25.55;;
77206;SDS011;66190;50.708;7.906;2023-02-10T07:15:31;72.00;;;25.52;;
77206;SDS011;66190;50.708;7.906;2023-02-10T07:17:56;67.43;;;24.93;;
77206;SDS011;66190;50.708;7.906;2023-02-10T07:20:22;70.38;;;24.92;;
77206;SDS011;66190;50.708;7.906;2023-02-10T07:22:48;78.27;;;28.10;;
77206;SDS011;66190;50.708;7.906;2023-02-10T07:25:13;77.93;;;31.58;;
77206;SDS011;66190;50.708;7.906;2023-02-10T07:27:39;73.17;;;29.10;;
77206;SDS011;66190;50.708;7.906;2023-02-10T07:30:05;74.28;;;27.45;;
77206;SDS011;66190;50.708;7.906;2023-02-10T07:32:31;83.22;;;29.15;;
77206;SDS011;66190;50.708;7.906;2023-02-10T07:34:57;81.82;;;30.83;;
77206;SDS011;66190;50.708;7.906;2023-02-10T07:37:22;80.53;;;29.00;;
77206;SDS011;66190;50.708;7.906;2023-02-10T07:39:49;71.70;;;24.85;;
77206;SDS011;66190;50.708;7.906;2023-02-10T07:42:14;70.67;;;25.67;;
77206;SDS011;66190;50.708;7.906;2023-02-10T07:44:40;70.57;;;25.58;;
77206;SDS011;66190;50.708;7.906;2023-02-10T07:47:05;68.33;;;24.17;;
77206;SDS011;66190;50.708;7.906;2023-02-10T07:49:32;63.42;;;24.35;;
77206;SDS011;66190;50.708;7.906;2023-02-10T07:51:58;59.30;;;22.90;;
77206;SDS011;66190;50.708;7.906;2023-02-10T07:54:23;54.60;;;23.55;;
77206;SDS011;66190;50.708;7.906;2023-02-10T07:56:49;53.30;;;23.23;;
77206;SDS011;66190;50.708;7.906;2023-02-10T07:59:15;60.53;;;24.23;;
77206;SDS011;66190;50.708;7.906;2023-02-10T08:01:41;56.47;;;23.13;;
77206;SDS011;66190;50.708;7.906;2023-02-10T08:04:11;59.70;;;22.92;;
77206;SDS011;66190;50.708;7.906;2023-02-10T08:06:38;53.97;;;22.13;;
77206;SDS011;66190;50.708;7.906;2023-02-10T08:09:04;54.20;;;22.48;;
77206;SDS011;66190;50.708;7.906;2023-02-10T08:11:30;55.70;;;23.73;;
77206;SDS011;66190;50.708;7.906;2023-02-10T08:13:56;58.38;;;22.25;;
77206;SDS011;66190;50.708;7.906;2023-02-10T08:16:22;60.43;;;24.00;;
77206;SDS011;66190;50.708;7.906;2023-02-10T08:18:48;62.58;;;24.83;;
77206;SDS011;66190;50.708;7.906;2023-02-10T08:21:13;57.73;;;24.37;;
77206;SDS011;66190;50.708;7.906;2023-02-10T08:23:39;57.97;;;23.33;;
77206;SDS011;66190;50.708;7.906;2023-02-10T08:26:06;55.77;;;21.87;;
77206;SDS011;66190;50.708;7.906;2023-02-10T08:28:34;58.90;;;22.35;;
77206;SDS011;66190;50.708;7.906;2023-02-10T08:31:01;51.35;;;20.95;;
77206;SDS011;66190;50.708;7.906;2023-02-10T08:33:28;51.45;;;20.20;;
77206;SDS011;66190;50.708;7.906;2023-02-10T08:35:55;53.67;;;21.90;;
77206;SDS011;66190;50.708;7.906;2023-02-10T08:38:21;49.80;;;20.65;;
77206;SDS011;66190;50.708;7.906;2023-02-10T08:40:53;52.45;;;21.05;;
77206;SDS011;66190;50.708;7.906;2023-02-10T08:43:20;49.65;;;20.13;;
77206;SDS011;66190;50.708;7.906;2023-02-10T08:45:46;49.23;;;18.67;;
77206;SDS011;66190;50.708;7.906;2023-02-10T08:48:11;51.10;;;20.70;;
77206;SDS011;66190;50.708;7.906;2023-02-10T08:50:37;48.83;;;19.58;;
77206;SDS011;66190;50.708;7.906;2023-02-10T08:53:04;47.63;;;18.85;;
77206;SDS011;66190;50.708;7.906;2023-02-10T08:55:30;47.20;;;19.13;;
77206;SDS011;66190;50.708;7.906;2023-02-10T08:57:55;45.63;;;18.75;;
77206;SDS011;66190;50.708;7.906;2023-02-10T09:00:21;46.37;;;18.93;;
77206;SDS011;66190;50.708;7.906;2023-02-10T09:02:50;47.03;;;19.85;;
77206;SDS011;66190;50.708;7.906;2023-02-10T09:05:16;42.45;;;18.40;;
77206;SDS011;66190;50.708;7.906;2023-02-10T09:07:44;43.07;;;18.97;;
77206;SDS011;66190;50.708;7.906;2023-02-10T09:10:10;43.78;;;20.10;;
77206;SDS011;66190;50.708;7.906;2023-02-10T09:12:37;49.08;;;22.05;;
77206;SDS011;66190;50.708;7.906;2023-02-10T09:15:03;68.75;;;24.88;;
77206;SDS011;66190;50.708;7.906;2023-02-10T09:17:29;136.80;;;42.17;;
77206;SDS011;66190;50.708;7.906;2023-02-10T09:19:55;95.65;;;33.60;;
77206;SDS011;66190;50.708;7.906;2023-02-10T09:22:21;53.95;;;23.38;;
77206;SDS011;66190;50.708;7.906;2023-02-10T09:24:46;51.38;;;21.73;;
77206;SDS011;66190;50.708;7.906;2023-02-10T09:27:14;47.38;;;21.33;;
77206;SDS011;66190;50.708;7.906;2023-02-10T09:29:40;44.40;;;19.90;;
77206;SDS011;66190;50.708;7.906;2023-02-10T09:32:06;44.63;;;20.00;;
77206;SDS011;66190;50.708;7.906;2023-02-10T09:34:32;46.58;;;20.60;;
77206;SDS011;66190;50.708;7.906;2023-02-10T09:36:58;46.93;;;17.93;;
77206;SDS011;66190;50.708;7.906;2023-02-10T09:39:26;49.60;;;20.15;;
77206;SDS011;66190;50.708;7.906;2023-02-10T09:42:20;50.97;;;23.33;;
77206;SDS011;66190;50.708;7.906;2023-02-10T09:44:48;52.40;;;22.53;;
77206;SDS011;66190;50.708;7.906;2023-02-10T09:55:09;48.40;;;19.98;;
77206;SDS011;66190;50.708;7.906;2023-02-10T09:57:45;53.47;;;21.20;;
77206;SDS011;66190;50.708;7.906;2023-02-10T10:00:31;55.08;;;21.55;;
77206;SDS011;66190;50.708;7.906;2023-02-10T10:03:01;51.17;;;20.42;;
77206;SDS011;66190;50.708;7.906;2023-02-10T10:05:38;47.10;;;18.55;;
77206;SDS011;66190;50.708;7.906;2023-02-10T10:10:52;44.73;;;18.63;;
77206;SDS011;66190;50.708;7.906;2023-02-10T10:13:25;41.75;;;17.73;;
77206;SDS011;66190;50.708;7.906;2023-02-10T10:21:00;43.97;;;19.50;;
77206;SDS011;66190;50.708;7.906;2023-02-10T10:23:48;54.03;;;21.03;;
77206;SDS011;66190;50.708;7.906;2023-02-10T10:31:53;39.90;;;16.38;;
77206;SDS011;66190;50.708;7.906;2023-02-10T10:34:31;39.47;;;16.48;;
77206;SDS011;66190;50.708;7.906;2023-02-10T10:36:59;44.50;;;17.37;;
77206;SDS011;66190;50.708;7.906;2023-02-10T10:39:31;43.10;;;17.08;;
77206;SDS011;66190;50.708;7.906;2023-02-10T10:44:57;39.08;;;16.08;;
77206;SDS011;66190;50.708;7.906;2023-02-10T10:50:13;37.67;;;14.97;;
77206;SDS011;66190;50.708;7.906;2023-02-10T10:52:45;39.25;;;16.63;;
77206;SDS011;66190;50.708;7.906;2023-02-10T10:55:21;39.95;;;16.42;;
77206;SDS011;66190;50.708;7.906;2023-02-10T10:58:01;37.63;;;16.80;;
77206;SDS011;66190;50.708;7.906;2023-02-10T11:00:33;33.67;;;13.43;;
77206;SDS011;66190;50.708;7.906;2023-02-10T11:02:59;33.43;;;14.90;;
77206;SDS011;66190;50.708;7.906;2023-02-10T11:05:33;34.53;;;15.80;;
77206;SDS011;66190;50.708;7.906;2023-02-10T11:08:03;32.85;;;14.43;;
77206;SDS011;66190;50.708;7.906;2023-02-10T11:13:22;33.55;;;13.98;;
77206;SDS011;66190;50.708;7.906;2023-02-10T11:18:26;31.83;;;13.38;;
77206;SDS011;66190;50.708;7.906;2023-02-10T11:21:03;28.70;;;12.50;;
77206;SDS011;66190;50.708;7.906;2023-02-10T11:23:31;34.05;;;13.27;;
77206;SDS011;66190;50.708;7.906;2023-02-10T11:26:04;32.60;;;13.38;;
77206;SDS011;66190;50.708;7.906;2023-02-10T11:28:34;31.75;;;13.23;;
77206;SDS011;66190;50.708;7.906;2023-02-10T11:31:06;38.70;;;16.63;;
77206;SDS011;66190;50.708;7.906;2023-02-10T11:33:57;32.42;;;13.98;;
77206;SDS011;66190;50.708;7.906;2023-02-10T11:36:35;34.75;;;13.43;;
77206;SDS011;66190;50.708;7.906;2023-02-10T11:39:04;42.53;;;19.40;;
77206;SDS011;66190;50.708;7.906;2023-02-10T11:41:32;38.45;;;16.42;;
77206;SDS011;66190;50.708;7.906;2023-02-10T11:43:59;50.13;;;21.43;;
77206;SDS011;66190;50.708;7.906;2023-02-10T11:46:28;37.03;;;15.50;;
77206;SDS011;66190;50.708;7.906;2023-02-10T11:48:56;34.95;;;13.82;;
77206;SDS011;66190;50.708;7.906;2023-02-10T11:51:24;33.05;;;13.45;;
77206;SDS011;66190;50.708;7.906;2023-02-10T11:53:49;35.67;;;13.57;;
77206;SDS011;66190;50.708;7.906;2023-02-10T11:56:18;34.63;;;13.48;;
77206;SDS011;66190;50.708;7.906;2023-02-10T12:04:59;33.85;;;13.93;;
77206;SDS011;66190;50.708;7.906;2023-02-10T12:12:37;38.47;;;16.40;;
77206;SDS011;66190;50.708;7.906;2023-02-10T12:20:41;32.17;;;14.02;;
77206;SDS011;66190;50.708;7.906;2023-02-10T12:23:36;31.63;;;13.55;;
77206;SDS011;66190;50.708;7.906;2023-02-10T12:26:10;32.83;;;13.33;;
77206;SDS011;66190;50.708;7.906;2023-02-10T12:28:57;32.03;;;13.30;;
77206;SDS011;66190;50.708;7.906;2023-02-10T12:31:33;34.60;;;13.98;;
77206;SDS011;66190;50.708;7.906;2023-02-10T12:34:55;33.50;;;13.10;;
77206;SDS011;66190;50.708;7.906;2023-02-10T12:37:19;34.10;;;14.05;;
77206;SDS011;66190;50.708;7.906;2023-02-10T12:43:17;32.40;;;14.85;;
77206;SDS011;66190;50.708;7.906;2023-02-10T12:54:30;33.40;;;13.53;;
77206;SDS011;66190;50.708;7.906;2023-02-10T12:56:59;34.60;;;14.77;;
77206;SDS011;66190;50.708;7.906;2023-02-10T13:02:05;37.03;;;14.43;;
77206;SDS011;66190;50.708;7.906;2023-02-10T13:04:41;32.60;;;14.07;;
77206;SDS011;66190;50.708;7.906;2023-02-10T13:09:57;29.50;;;13.38;;
77206;SDS011;66190;50.708;7.906;2023-02-10T13:12:41;33.65;;;14.10;;
77206;SDS011;66190;50.708;7.906;2023-02-10T13:15:21;33.90;;;13.75;;
77206;SDS011;66190;50.708;7.906;2023-02-10T13:17:49;33.30;;;14.32;;
77206;SDS011;66190;50.708;7.906;2023-02-10T13:23:03;34.13;;;14.82;;
77206;SDS011;66190;50.708;7.906;2023-02-10T13:25:58;31.33;;;13.77;;
77206;SDS011;66190;50.708;7.906;2023-02-10T13:34:17;33.13;;;14.27;;
77206;SDS011;66190;50.708;7.906;2023-02-10T13:39:32;31.90;;;13.73;;
77206;SDS011;66190;50.708;7.906;2023-02-10T13:42:45;32.55;;;13.48;;
77206;SDS011;66190;50.708;7.906;2023-02-10T13:47:27;30.50;;;13.80;;
77206;SDS011;66190;50.708;7.906;2023-02-10T13:58:46;30.20;;;13.73;;
77206;SDS011;66190;50.708;7.906;2023-02-10T14:00:53;32.40;;;13.87;;
77206;SDS011;66190;50.708;7.906;2023-02-10T14:03:24;29.85;;;12.38;;
77206;SDS011;66190;50.708;7.906;2023-02-10T14:08:27;30.00;;;13.23;;
77206;SDS011;66190;50.708;7.906;2023-02-10T14:10:59;33.00;;;13.48;;
77206;SDS011;66190;50.708;7.906;2023-02-10T14:13:29;33.93;;;12.80;;
77206;SDS011;66190;50.708;7.906;2023-02-10T14:15:58;31.23;;;14.38;;
77206;SDS011;66190;50.708;7.906;2023-02-10T14:18:37;33.88;;;12.98;;
77206;SDS011;66190;50.708;7.906;2023-02-10T14:21:10;30.30;;;13.50;;
77206;SDS011;66190;50.708;7.906;2023-02-10T14:23:42;32.70;;;13.82;;
77206;SDS011;66190;50.708;7.906;2023-02-10T14:26:35;29.23;;;12.03;;
77206;SDS011;66190;50.708;7.906;2023-02-10T14:29:00;28.98;;;13.13;;
77206;SDS011;66190;50.708;7.906;2023-02-10T14:31:30;31.08;;;13.43;;
77206;SDS011;66190;50.708;7.906;2023-02-10T14:34:01;27.15;;;11.98;;
77206;SDS011;66190;50.708;7.906;2023-02-10T14:36:29;29.88;;;12.38;;
77206;SDS011;66190;50.708;7.906;2023-02-10T14:38:57;27.53;;;12.60;;
77206;SDS011;66190;50.708;7.906;2023-02-10T14:41:24;30.95;;;13.38;;
77206;SDS011;66190;50.708;7.906;2023-02-10T14:43:52;32.30;;;13.68;;
77206;SDS011;66190;50.708;7.906;2023-02-10T14:46:23;31.08;;;12.90;;
77206;SDS011;66190;50.708;7.906;2023-02-10T14:48:52;29.77;;;13.85;;
77206;SDS011;66190;50.708;7.906;2023-02-10T14:51:24;30.90;;;13.37;;
77206;SDS011;66190;50.708;7.906;2023-02-10T14:53:52;27.52;;;13.18;;
77206;SDS011;66190;50.708;7.906;2023-02-10T14:56:20;27.17;;;12.25;;
77206;SDS011;66190;50.708;7.906;2023-02-10T14:58:48;28.80;;;13.23;;
77206;SDS011;66190;50.708;7.906;2023-02-10T15:03:50;31.85;;;13.07;;
77206;SDS011;66190;50.708;7.906;2023-02-10T15:06:17;28.60;;;13.48;;
77206;SDS011;66190;50.708;7.906;2023-02-10T15:08:50;27.05;;;12.50;;
77206;SDS011;66190;50.708;7.906;2023-02-10T15:11:20;27.98;;;13.02;;
77206;SDS011;66190;50.708;7.906;2023-02-10T15:17:14;30.48;;;13.30;;
77206;SDS011;66190;50.708;7.906;2023-02-10T15:19:58;29.65;;;13.13;;
77206;SDS011;66190;50.708;7.906;2023-02-10T15:33:33;30.52;;;12.43;;
77206;SDS011;66190;50.708;7.906;2023-02-10T15:39:20;30.48;;;13.13;;
77206;SDS011;66190;50.708;7.906;2023-02-10T15:43:52;29.73;;;12.68;;
77206;SDS011;66190;50.708;7.906;2023-02-10T15:46:17;27.43;;;11.63;;
77206;SDS011;66190;50.708;7.906;2023-02-10T15:48:46;30.90;;;11.65;;
77206;SDS011;66190;50.708;7.906;2023-02-10T15:51:20;29.10;;;13.55;;
77206;SDS011;66190;50.708;7.906;2023-02-10T15:53:48;33.33;;;14.27;;
77206;SDS011;66190;50.708;7.906;2023-02-10T15:56:23;37.97;;;15.20;;
77206;SDS011;66190;50.708;7.906;2023-02-10T15:58:49;37.35;;;15.27;;
77206;SDS011;66190;50.708;7.906;2023-02-10T16:01:15;34.13;;;14.40;;
77206;SDS011;66190;50.708;7.906;2023-02-10T16:03:41;30.73;;;13.03;;
77206;SDS011;66190;50.708;7.906;2023-02-10T16:06:13;28.92;;;12.00;;
77206;SDS011;66190;50.708;7.906;2023-02-10T16:08:42;32.78;;;13.63;;
77206;SDS011;66190;50.708;7.906;2023-02-10T16:11:12;32.03;;;12.50;;
77206;SDS011;66190;50.708;7.906;2023-02-10T16:13:37;29.52;;;13.00;;
77206;SDS011;66190;50.708;7.906;2023-02-10T16:16:03;28.20;;;12.35;;
77206;SDS011;66190;50.708;7.906;2023-02-10T16:18:37;29.70;;;12.30;;
77206;SDS011;66190;50.708;7.906;2023-02-10T16:21:03;31.55;;;13.57;;
77206;SDS011;66190;50.708;7.906;2023-02-10T16:23:30;23.95;;;10.52;;
77206;SDS011;66190;50.708;7.906;2023-02-10T16:25:59;30.57;;;12.03;;
77206;SDS011;66190;50.708;7.906;2023-02-10T16:28:24;26.25;;;10.25;;
77206;SDS011;66190;50.708;7.906;2023-02-10T16:30:50;27.60;;;12.07;;
77206;SDS011;66190;50.708;7.906;2023-02-10T16:33:16;32.60;;;12.25;;
77206;SDS011;66190;50.708;7.906;2023-02-10T16:35:42;29.10;;;11.57;;
77206;SDS011;66190;50.708;7.906;2023-02-10T16:38:08;29.25;;;12.63;;
77206;SDS011;66190;50.708;7.906;2023-02-10T16:40:35;35.40;;;14.23;;
77206;SDS011;66190;50.708;7.906;2023-02-10T16:43:04;34.20;;;13.93;;
77206;SDS011;66190;50.708;7.906;2023-02-10T16:45:31;33.30;;;15.10;;
77206;SDS011;66190;50.708;7.906;2023-02-10T16:47:58;31.67;;;14.60;;